Archival Weather

Ambodedjo

Ambodedjo, Mali (GAMB)

Report from: Tuesday, June 6, 2023 9:00 AM GMT
Current time: Tuesday, July 16, 2024 9:34 AM GMT

Current weather – Weather history – Daily summaries
Weather forecast

Temperature34.0°C (93.2°F)
Heat index37.4°C (99.2°F)
Dew point21.0°C (69.8°F)
Winds 4 kts (2.1 m/s, 4.6 mph) West-Southwest (240°)
Clouds Sky clear
Altimeter29.88 in.Hg (1012 mB)
Relative humidity47 %
Density altitude2,538 ft. (773 m)
Remarks Ceiling and visibility OK
Flight conditions Visual Meteorological Conditions
Raw dataGAMB 060900Z 24004KT CAVOK 34/21 Q1012
An error has occurred. This application may no longer respond until reloaded. Reload 🗙